sensor_id;sensor_type;location;lat;lon;timestamp;temperature;humidity
3876;DHT22;1953;51.222;6.624;2022-11-30T00:01:45;8.30;1.00
3876;DHT22;1953;51.222;6.624;2022-11-30T00:08:44;8.40;1.00
3876;DHT22;1953;51.222;6.624;2022-11-30T00:13:27;8.30;1.00
3876;DHT22;1953;51.222;6.624;2022-11-30T00:18:09;8.30;1.00
3876;DHT22;1953;51.222;6.624;2022-11-30T00:22:54;8.30;1.00
3876;DHT22;1953;51.222;6.624;2022-11-30T00:27:37;8.40;1.00
3876;DHT22;1953;51.222;6.624;2022-11-30T00:32:20;8.40;1.00
3876;DHT22;1953;51.222;6.624;2022-11-30T00:37:02;8.60;1.00
3876;DHT22;1953;51.222;6.624;2022-11-30T00:41:45;8.70;1.00
3876;DHT22;1953;51.222;6.624;2022-11-30T00:46:28;8.70;1.00
3876;DHT22;1953;51.222;6.624;2022-11-30T00:51:11;8.60;1.00
3876;DHT22;1953;51.222;6.624;2022-11-30T00:55:53;8.60;1.00
3876;DHT22;1953;51.222;6.624;2022-11-30T01:00:36;8.60;1.00
3876;DHT22;1953;51.222;6.624;2022-11-30T01:05:20;8.60;1.00
3876;DHT22;1953;51.222;6.624;2022-11-30T01:10:03;8.70;1.00
3876;DHT22;1953;51.222;6.624;2022-11-30T01:14:46;8.60;1.00
3876;DHT22;1953;51.222;6.624;2022-11-30T01:19:28;8.70;1.00
3876;DHT22;1953;51.222;6.624;2022-11-30T01:24:12;8.80;1.00
3876;DHT22;1953;51.222;6.624;2022-11-30T01:28:55;8.70;1.00
3876;DHT22;1953;51.222;6.624;2022-11-30T01:33:37;8.70;1.00
3876;DHT22;1953;51.222;6.624;2022-11-30T01:38:20;8.70;1.00
3876;DHT22;1953;51.222;6.624;2022-11-30T01:43:08;8.70;1.00
3876;DHT22;1953;51.222;6.624;2022-11-30T01:47:53;8.70;1.00
3876;DHT22;1953;51.222;6.624;2022-11-30T01:52:40;8.70;1.00
3876;DHT22;1953;51.222;6.624;2022-11-30T01:57:26;8.80;1.00
3876;DHT22;1953;51.222;6.624;2022-11-30T02:02:12;8.80;1.00
3876;DHT22;1953;51.222;6.624;2022-11-30T02:06:55;8.80;1.00
3876;DHT22;1953;51.222;6.624;2022-11-30T02:11:39;8.80;1.00
3876;DHT22;1953;51.222;6.624;2022-11-30T02:16:26;8.80;1.00
3876;DHT22;1953;51.222;6.624;2022-11-30T02:21:14;8.80;1.00
3876;DHT22;1953;51.222;6.624;2022-11-30T02:26:02;8.90;1.00
3876;DHT22;1953;51.222;6.624;2022-11-30T02:30:49;9.00;1.00
3876;DHT22;1953;51.222;6.624;2022-11-30T02:35:37;9.00;1.00
3876;DHT22;1953;51.222;6.624;2022-11-30T02:40:21;9.00;1.00
3876;DHT22;1953;51.222;6.624;2022-11-30T02:45:05;9.00;1.00
3876;DHT22;1953;51.222;6.624;2022-11-30T02:49:53;9.00;1.00
3876;DHT22;1953;51.222;6.624;2022-11-30T02:54:37;9.00;1.00
3876;DHT22;1953;51.222;6.624;2022-11-30T02:59:21;9.00;1.00
3876;DHT22;1953;51.222;6.624;2022-11-30T03:04:03;9.00;1.00
3876;DHT22;1953;51.222;6.624;2022-11-30T03:08:47;9.10;1.00
3876;DHT22;1953;51.222;6.624;2022-11-30T03:13:30;9.10;1.00
3876;DHT22;1953;51.222;6.624;2022-11-30T03:18:13;9.10;1.00
3876;DHT22;1953;51.222;6.624;2022-11-30T03:22:58;9.10;1.00
3876;DHT22;1953;51.222;6.624;2022-11-30T03:27:42;9.10;1.00
3876;DHT22;1953;51.222;6.624;2022-11-30T03:32:25;9.00;1.00
3876;DHT22;1953;51.222;6.624;2022-11-30T03:37:07;8.90;1.00
3876;DHT22;1953;51.222;6.624;2022-11-30T03:41:50;8.90;1.00
3876;DHT22;1953;51.222;6.624;2022-11-30T03:46:33;8.80;1.00
3876;DHT22;1953;51.222;6.624;2022-11-30T03:51:16;8.80;1.00
3876;DHT22;1953;51.222;6.624;2022-11-30T03:56:00;8.70;1.00
3876;DHT22;1953;51.222;6.624;2022-11-30T04:00:42;8.60;1.00
3876;DHT22;1953;51.222;6.624;2022-11-30T04:05:26;8.60;1.00
3876;DHT22;1953;51.222;6.624;2022-11-30T04:10:10;8.60;1.00
3876;DHT22;1953;51.222;6.624;2022-11-30T04:14:52;8.70;1.00
3876;DHT22;1953;51.222;6.624;2022-11-30T04:19:34;8.70;1.00
3876;DHT22;1953;51.222;6.624;2022-11-30T04:24:18;8.70;1.00
3876;DHT22;1953;51.222;6.624;2022-11-30T04:29:00;8.70;1.00
3876;DHT22;1953;51.222;6.624;2022-11-30T04:33:43;8.70;1.00
3876;DHT22;1953;51.222;6.624;2022-11-30T04:38:26;8.60;1.00
3876;DHT22;1953;51.222;6.624;2022-11-30T04:43:11;8.60;1.00
3876;DHT22;1953;51.222;6.624;2022-11-30T04:47:54;8.60;1.00
3876;DHT22;1953;51.222;6.624;2022-11-30T04:52:36;8.50;1.00
3876;DHT22;1953;51.222;6.624;2022-11-30T04:57:18;8.50;1.00
3876;DHT22;1953;51.222;6.624;2022-11-30T05:02:02;8.50;1.00
3876;DHT22;1953;51.222;6.624;2022-11-30T05:06:45;8.50;1.00
3876;DHT22;1953;51.222;6.624;2022-11-30T05:11:27;8.40;1.00
3876;DHT22;1953;51.222;6.624;2022-11-30T05:16:09;8.40;1.00
3876;DHT22;1953;51.222;6.624;2022-11-30T05:20:53;8.40;1.00
3876;DHT22;1953;51.222;6.624;2022-11-30T05:25:36;8.40;1.00
3876;DHT22;1953;51.222;6.624;2022-11-30T05:30:18;8.40;1.00
3876;DHT22;1953;51.222;6.624;2022-11-30T05:35:01;8.30;1.00
3876;DHT22;1953;51.222;6.624;2022-11-30T05:39:45;8.30;1.00
3876;DHT22;1953;51.222;6.624;2022-11-30T05:44:27;8.30;1.00
3876;DHT22;1953;51.222;6.624;2022-11-30T05:49:09;8.30;1.00
3876;DHT22;1953;51.222;6.624;2022-11-30T05:53:52;8.40;1.00
3876;DHT22;1953;51.222;6.624;2022-11-30T05:58:36;8.50;1.00
3876;DHT22;1953;51.222;6.624;2022-11-30T06:03:18;8.50;1.00
3876;DHT22;1953;51.222;6.624;2022-11-30T06:08:00;8.50;1.00
3876;DHT22;1953;51.222;6.624;2022-11-30T06:12:43;8.50;1.00
3876;DHT22;1953;51.222;6.624;2022-11-30T06:17:27;8.40;1.00
3876;DHT22;1953;51.222;6.624;2022-11-30T06:22:09;8.40;1.00
3876;DHT22;1953;51.222;6.624;2022-11-30T06:26:51;8.40;1.00
3876;DHT22;1953;51.222;6.624;2022-11-30T06:31:34;8.30;1.00
3876;DHT22;1953;51.222;6.624;2022-11-30T06:36:21;8.30;1.00
3876;DHT22;1953;51.222;6.624;2022-11-30T06:41:05;8.30;1.00
3876;DHT22;1953;51.222;6.624;2022-11-30T06:45:48;8.30;1.00
3876;DHT22;1953;51.222;6.624;2022-11-30T06:50:30;8.20;1.00
3876;DHT22;1953;51.222;6.624;2022-11-30T06:55:14;8.10;1.00
3876;DHT22;1953;51.222;6.624;2022-11-30T06:59:57;8.10;1.00
3876;DHT22;1953;51.222;6.624;2022-11-30T07:04:39;8.00;1.00
3876;DHT22;1953;51.222;6.624;2022-11-30T07:09:23;8.00;1.00
3876;DHT22;1953;51.222;6.624;2022-11-30T07:14:07;7.90;1.00
3876;DHT22;1953;51.222;6.624;2022-11-30T07:18:49;7.90;1.00
3876;DHT22;1953;51.222;6.624;2022-11-30T07:23:31;7.80;1.00
3876;DHT22;1953;51.222;6.624;2022-11-30T07:28:31;7.80;1.00
3876;DHT22;1953;51.222;6.624;2022-11-30T07:33:15;7.80;1.00
3876;DHT22;1953;51.222;6.624;2022-11-30T07:37:57;7.70;1.00
3876;DHT22;1953;51.222;6.624;2022-11-30T07:42:40;7.70;1.00
3876;DHT22;1953;51.222;6.624;2022-11-30T07:47:22;7.70;1.00
3876;DHT22;1953;51.222;6.624;2022-11-30T07:52:06;7.80;1.00
3876;DHT22;1953;51.222;6.624;2022-11-30T07:56:48;7.70;1.00
3876;DHT22;1953;51.222;6.624;2022-11-30T08:01:31;7.80;1.00
3876;DHT22;1953;51.222;6.624;2022-11-30T08:06:15;7.80;1.00
3876;DHT22;1953;51.222;6.624;2022-11-30T08:11:01;7.80;1.00
3876;DHT22;1953;51.222;6.624;2022-11-30T08:15:44;7.80;1.00
3876;DHT22;1953;51.222;6.624;2022-11-30T08:20:26;7.80;1.00
3876;DHT22;1953;51.222;6.624;2022-11-30T08:25:09;7.80;1.00
3876;DHT22;1953;51.222;6.624;2022-11-30T08:29:52;7.80;1.00
3876;DHT22;1953;51.222;6.624;2022-11-30T08:34:35;7.80;1.00
3876;DHT22;1953;51.222;6.624;2022-11-30T08:39:17;7.80;1.00
3876;DHT22;1953;51.222;6.624;2022-11-30T08:44:00;7.80;1.00
3876;DHT22;1953;51.222;6.624;2022-11-30T08:48:44;7.90;1.00
3876;DHT22;1953;51.222;6.624;2022-11-30T08:53:26;7.90;1.00
3876;DHT22;1953;51.222;6.624;2022-11-30T08:58:09;7.90;1.00
3876;DHT22;1953;51.222;6.624;2022-11-30T09:02:51;7.90;1.00
3876;DHT22;1953;51.222;6.624;2022-11-30T09:07:35;7.90;1.00
3876;DHT22;1953;51.222;6.624;2022-11-30T09:12:17;7.80;1.00
3876;DHT22;1953;51.222;6.624;2022-11-30T09:17:00;7.90;1.00
3876;DHT22;1953;51.222;6.624;2022-11-30T09:21:42;7.90;1.00
3876;DHT22;1953;51.222;6.624;2022-11-30T09:26:26;7.90;1.00
3876;DHT22;1953;51.222;6.624;2022-11-30T09:31:10;7.90;1.00
3876;DHT22;1953;51.222;6.624;2022-11-30T09:35:57;7.90;1.00
3876;DHT22;1953;51.222;6.624;2022-11-30T09:40:40;7.90;1.00
3876;DHT22;1953;51.222;6.624;2022-11-30T09:45:28;7.90;1.00
3876;DHT22;1953;51.222;6.624;2022-11-30T09:50:13;7.90;1.00
3876;DHT22;1953;51.222;6.624;2022-11-30T09:54:56;8.00;1.00
3876;DHT22;1953;51.222;6.624;2022-11-30T09:59:50;8.00;1.00
3876;DHT22;1953;51.222;6.624;2022-11-30T10:04:35;8.00;1.00
3876;DHT22;1953;51.222;6.624;2022-11-30T10:09:29;8.10;1.00
3876;DHT22;1953;51.222;6.624;2022-11-30T10:14:31;8.20;1.00
3876;DHT22;1953;51.222;6.624;2022-11-30T10:19:28;8.20;1.00
3876;DHT22;1953;51.222;6.624;2022-11-30T10:24:31;8.20;1.00
3876;DHT22;1953;51.222;6.624;2022-11-30T10:29:18;8.20;1.00
3876;DHT22;1953;51.222;6.624;2022-11-30T10:34:13;8.20;1.00
3876;DHT22;1953;51.222;6.624;2022-11-30T10:39:01;8.20;1.00
3876;DHT22;1953;51.222;6.624;2022-11-30T10:43:48;8.20;1.00
3876;DHT22;1953;51.222;6.624;2022-11-30T10:48:35;8.30;1.00
3876;DHT22;1953;51.222;6.624;2022-11-30T10:53:21;8.30;1.00
3876;DHT22;1953;51.222;6.624;2022-11-30T10:58:08;8.30;1.00
3876;DHT22;1953;51.222;6.624;2022-11-30T11:02:55;8.30;1.00
3876;DHT22;1953;51.222;6.624;2022-11-30T11:07:45;8.30;1.00
3876;DHT22;1953;51.222;6.624;2022-11-30T11:12:29;8.30;1.00
3876;DHT22;1953;51.222;6.624;2022-11-30T11:17:22;8.30;1.00
3876;DHT22;1953;51.222;6.624;2022-11-30T11:22:15;8.30;1.00
3876;DHT22;1953;51.222;6.624;2022-11-30T11:26:58;8.30;1.00
3876;DHT22;1953;51.222;6.624;2022-11-30T11:31:43;8.30;1.00
3876;DHT22;1953;51.222;6.624;2022-11-30T11:36:28;8.40;1.00
3876;DHT22;1953;51.222;6.624;2022-11-30T11:41:16;8.40;1.00
3876;DHT22;1953;51.222;6.624;2022-11-30T11:46:10;8.50;1.00
3876;DHT22;1953;51.222;6.624;2022-11-30T11:50:56;8.70;1.00
3876;DHT22;1953;51.222;6.624;2022-11-30T11:55:40;8.70;1.00
3876;DHT22;1953;51.222;6.624;2022-11-30T12:00:25;8.60;1.00
3876;DHT22;1953;51.222;6.624;2022-11-30T12:10:02;8.70;1.00
3876;DHT22;1953;51.222;6.624;2022-11-30T12:14:46;8.70;1.00
3876;DHT22;1953;51.222;6.624;2022-11-30T12:19:34;8.70;1.00
3876;DHT22;1953;51.222;6.624;2022-11-30T12:24:41;8.70;1.00
3876;DHT22;1953;51.222;6.624;2022-11-30T12:29:37;8.80;1.00
3876;DHT22;1953;51.222;6.624;2022-11-30T12:34:33;8.80;1.00
3876;DHT22;1953;51.222;6.624;2022-11-30T12:39:26;8.90;1.00
3876;DHT22;1953;51.222;6.624;2022-11-30T12:44:28;8.90;1.00
3876;DHT22;1953;51.222;6.624;2022-11-30T12:49:27;8.90;1.00
3876;DHT22;1953;51.222;6.624;2022-11-30T12:54:16;8.90;1.00
3876;DHT22;1953;51.222;6.624;2022-11-30T12:59:12;8.90;1.00
3876;DHT22;1953;51.222;6.624;2022-11-30T13:03:58;9.00;1.00
3876;DHT22;1953;51.222;6.624;2022-11-30T13:08:52;9.00;1.00
3876;DHT22;1953;51.222;6.624;2022-11-30T13:13:49;9.00;1.00
3876;DHT22;1953;51.222;6.624;2022-11-30T13:18:32;9.00;1.00
3876;DHT22;1953;51.222;6.624;2022-11-30T13:23:21;9.00;1.00
3876;DHT22;1953;51.222;6.624;2022-11-30T13:28:14;8.90;1.00
3876;DHT22;1953;51.222;6.624;2022-11-30T13:33:44;8.90;1.00
3876;DHT22;1953;51.222;6.624;2022-11-30T13:38:28;8.90;1.00
3876;DHT22;1953;51.222;6.624;2022-11-30T13:43:17;8.90;1.00
3876;DHT22;1953;51.222;6.624;2022-11-30T13:48:16;8.80;1.00
3876;DHT22;1953;51.222;6.624;2022-11-30T13:53:29;8.80;1.00
3876;DHT22;1953;51.222;6.624;2022-11-30T13:58:17;8.80;1.00
3876;DHT22;1953;51.222;6.624;2022-11-30T14:03:16;8.70;1.00
3876;DHT22;1953;51.222;6.624;2022-11-30T14:08:16;8.80;1.00
3876;DHT22;1953;51.222;6.624;2022-11-30T14:13:30;8.90;1.00
3876;DHT22;1953;51.222;6.624;2022-11-30T14:18:23;9.00;1.00
3876;DHT22;1953;51.222;6.624;2022-11-30T14:23:12;9.00;1.00
3876;DHT22;1953;51.222;6.624;2022-11-30T14:27:56;9.00;1.00
3876;DHT22;1953;51.222;6.624;2022-11-30T14:32:41;8.90;1.00
3876;DHT22;1953;51.222;6.624;2022-11-30T14:37:29;8.90;1.00
3876;DHT22;1953;51.222;6.624;2022-11-30T14:42:18;8.90;1.00
3876;DHT22;1953;51.222;6.624;2022-11-30T14:47:12;8.90;1.00
3876;DHT22;1953;51.222;6.624;2022-11-30T14:52:03;8.90;1.00
3876;DHT22;1953;51.222;6.624;2022-11-30T14:56:47;8.90;1.00
3876;DHT22;1953;51.222;6.624;2022-11-30T15:01:31;8.80;1.00
3876;DHT22;1953;51.222;6.624;2022-11-30T15:06:14;8.80;1.00
3876;DHT22;1953;51.222;6.624;2022-11-30T15:11:03;8.80;1.00
3876;DHT22;1953;51.222;6.624;2022-11-30T15:15:50;8.80;1.00
3876;DHT22;1953;51.222;6.624;2022-11-30T15:20:38;8.80;1.00
3876;DHT22;1953;51.222;6.624;2022-11-30T15:25:22;8.80;1.00
3876;DHT22;1953;51.222;6.624;2022-11-30T15:30:13;8.80;1.00
3876;DHT22;1953;51.222;6.624;2022-11-30T15:34:56;8.80;1.00
3876;DHT22;1953;51.222;6.624;2022-11-30T15:39:47;8.80;1.00
3876;DHT22;1953;51.222;6.624;2022-11-30T15:44:38;8.80;1.00
3876;DHT22;1953;51.222;6.624;2022-11-30T15:49:24;8.90;1.00
3876;DHT22;1953;51.222;6.624;2022-11-30T15:54:07;8.80;1.00
3876;DHT22;1953;51.222;6.624;2022-11-30T15:59:02;8.80;1.00
3876;DHT22;1953;51.222;6.624;2022-11-30T16:04:03;8.80;1.00
3876;DHT22;1953;51.222;6.624;2022-11-30T16:08:48;8.80;1.00
3876;DHT22;1953;51.222;6.624;2022-11-30T16:13:31;8.80;1.00
3876;DHT22;1953;51.222;6.624;2022-11-30T16:18:15;8.70;1.00
3876;DHT22;1953;51.222;6.624;2022-11-30T16:22:59;8.80;1.00
3876;DHT22;1953;51.222;6.624;2022-11-30T16:27:43;8.70;1.00
3876;DHT22;1953;51.222;6.624;2022-11-30T16:32:25;8.70;1.00
3876;DHT22;1953;51.222;6.624;2022-11-30T16:37:09;8.70;1.00
3876;DHT22;1953;51.222;6.624;2022-11-30T16:41:53;8.70;1.00
3876;DHT22;1953;51.222;6.624;2022-11-30T16:46:37;8.80;1.00
3876;DHT22;1953;51.222;6.624;2022-11-30T16:51:21;8.70;1.00
3876;DHT22;1953;51.222;6.624;2022-11-30T16:56:04;8.80;1.00
3876;DHT22;1953;51.222;6.624;2022-11-30T17:00:47;8.80;1.00
3876;DHT22;1953;51.222;6.624;2022-11-30T17:05:30;8.80;1.00
3876;DHT22;1953;51.222;6.624;2022-11-30T17:10:13;8.80;1.00
3876;DHT22;1953;51.222;6.624;2022-11-30T17:14:56;8.90;1.00
3876;DHT22;1953;51.222;6.624;2022-11-30T17:19:38;8.80;1.00
3876;DHT22;1953;51.222;6.624;2022-11-30T17:24:22;8.80;1.00
3876;DHT22;1953;51.222;6.624;2022-11-30T17:29:04;8.70;1.00
3876;DHT22;1953;51.222;6.624;2022-11-30T17:33:47;8.70;1.00
3876;DHT22;1953;51.222;6.624;2022-11-30T17:38:30;8.70;1.00
3876;DHT22;1953;51.222;6.624;2022-11-30T17:43:14;8.60;1.00
3876;DHT22;1953;51.222;6.624;2022-11-30T17:47:56;8.60;1.00
3876;DHT22;1953;51.222;6.624;2022-11-30T17:52:39;8.60;1.00
3876;DHT22;1953;51.222;6.624;2022-11-30T17:57:22;8.60;1.00
3876;DHT22;1953;51.222;6.624;2022-11-30T18:02:08;8.60;1.00
3876;DHT22;1953;51.222;6.624;2022-11-30T18:06:51;8.60;1.00
3876;DHT22;1953;51.222;6.624;2022-11-30T18:11:34;8.50;1.00
3876;DHT22;1953;51.222;6.624;2022-11-30T18:16:18;8.50;1.00
3876;DHT22;1953;51.222;6.624;2022-11-30T18:21:03;8.50;1.00
3876;DHT22;1953;51.222;6.624;2022-11-30T18:25:46;8.60;1.00
3876;DHT22;1953;51.222;6.624;2022-11-30T18:30:29;8.60;1.00
3876;DHT22;1953;51.222;6.624;2022-11-30T18:35:12;8.70;1.00
3876;DHT22;1953;51.222;6.624;2022-11-30T18:39:55;8.70;1.00
3876;DHT22;1953;51.222;6.624;2022-11-30T18:44:38;8.70;1.00
3876;DHT22;1953;51.222;6.624;2022-11-30T18:49:20;8.80;1.00
3876;DHT22;1953;51.222;6.624;2022-11-30T18:54:05;8.80;1.00
3876;DHT22;1953;51.222;6.624;2022-11-30T18:58:53;8.80;1.00
3876;DHT22;1953;51.222;6.624;2022-11-30T19:03:36;8.80;1.00
3876;DHT22;1953;51.222;6.624;2022-11-30T19:08:18;8.80;1.00
3876;DHT22;1953;51.222;6.624;2022-11-30T19:13:02;8.70;1.00
3876;DHT22;1953;51.222;6.624;2022-11-30T19:17:46;8.80;1.00
3876;DHT22;1953;51.222;6.624;2022-11-30T19:22:28;8.70;1.00
3876;DHT22;1953;51.222;6.624;2022-11-30T19:27:11;8.70;1.00
3876;DHT22;1953;51.222;6.624;2022-11-30T19:31:53;8.70;1.00
3876;DHT22;1953;51.222;6.624;2022-11-30T19:36:37;8.60;1.00
3876;DHT22;1953;51.222;6.624;2022-11-30T19:41:20;8.60;1.00
3876;DHT22;1953;51.222;6.624;2022-11-30T19:46:03;8.60;1.00
3876;DHT22;1953;51.222;6.624;2022-11-30T19:50:46;8.60;1.00
3876;DHT22;1953;51.222;6.624;2022-11-30T19:55:30;8.60;1.00
3876;DHT22;1953;51.222;6.624;2022-11-30T20:00:13;8.60;1.00
3876;DHT22;1953;51.222;6.624;2022-11-30T20:04:56;8.50;1.00
3876;DHT22;1953;51.222;6.624;2022-11-30T20:09:38;8.50;1.00
3876;DHT22;1953;51.222;6.624;2022-11-30T20:14:22;8.50;1.00
3876;DHT22;1953;51.222;6.624;2022-11-30T20:19:04;8.50;1.00
3876;DHT22;1953;51.222;6.624;2022-11-30T20:23:47;8.60;1.00
3876;DHT22;1953;51.222;6.624;2022-11-30T20:28:30;8.60;1.00
3876;DHT22;1953;51.222;6.624;2022-11-30T20:33:14;8.60;1.00
3876;DHT22;1953;51.222;6.624;2022-11-30T20:37:56;8.50;1.00
3876;DHT22;1953;51.222;6.624;2022-11-30T20:42:38;8.50;1.00
3876;DHT22;1953;51.222;6.624;2022-11-30T20:47:21;8.50;1.00
3876;DHT22;1953;51.222;6.624;2022-11-30T20:52:05;8.50;1.00
3876;DHT22;1953;51.222;6.624;2022-11-30T20:56:47;9.30;1.00
3876;DHT22;1953;51.222;6.624;2022-11-30T21:01:30;8.30;1.00
3876;DHT22;1953;51.222;6.624;2022-11-30T21:06:13;8.30;1.00
3876;DHT22;1953;51.222;6.624;2022-11-30T21:11:02;8.40;1.00
3876;DHT22;1953;51.222;6.624;2022-11-30T21:15:44;8.30;1.00
3876;DHT22;1953;51.222;6.624;2022-11-30T21:20:27;8.40;1.00
3876;DHT22;1953;51.222;6.624;2022-11-30T21:25:09;8.40;1.00
3876;DHT22;1953;51.222;6.624;2022-11-30T21:29:53;8.40;1.00
3876;DHT22;1953;51.222;6.624;2022-11-30T21:34:35;8.30;1.00
3876;DHT22;1953;51.222;6.624;2022-11-30T21:39:19;8.40;1.00
3876;DHT22;1953;51.222;6.624;2022-11-30T21:44:02;8.40;1.00
3876;DHT22;1953;51.222;6.624;2022-11-30T21:48:47;8.40;1.00
3876;DHT22;1953;51.222;6.624;2022-11-30T21:53:33;8.30;1.00
3876;DHT22;1953;51.222;6.624;2022-11-30T21:58:16;8.30;1.00
3876;DHT22;1953;51.222;6.624;2022-11-30T22:02:58;8.40;1.00
3876;DHT22;1953;51.222;6.624;2022-11-30T22:07:44;8.30;1.00
3876;DHT22;1953;51.222;6.624;2022-11-30T22:12:26;8.10;1.00
3876;DHT22;1953;51.222;6.624;2022-11-30T22:17:09;8.10;1.00
3876;DHT22;1953;51.222;6.624;2022-11-30T22:21:51;8.00;1.00
3876;DHT22;1953;51.222;6.624;2022-11-30T22:26:36;8.00;1.00
3876;DHT22;1953;51.222;6.624;2022-11-30T22:31:22;8.00;1.00
3876;DHT22;1953;51.222;6.624;2022-11-30T22:36:06;8.00;1.00
3876;DHT22;1953;51.222;6.624;2022-11-30T22:40:48;8.10;1.00
3876;DHT22;1953;51.222;6.624;2022-11-30T22:45:33;8.20;1.00
3876;DHT22;1953;51.222;6.624;2022-11-30T22:50:15;8.30;1.00
3876;DHT22;1953;51.222;6.624;2022-11-30T22:54:58;8.30;1.00
3876;DHT22;1953;51.222;6.624;2022-11-30T22:59:40;8.40;1.00
3876;DHT22;1953;51.222;6.624;2022-11-30T23:04:24;8.40;1.00
3876;DHT22;1953;51.222;6.624;2022-11-30T23:09:10;8.30;1.00
3876;DHT22;1953;51.222;6.624;2022-11-30T23:13:53;8.20;1.00
3876;DHT22;1953;51.222;6.624;2022-11-30T23:18:38;8.20;1.00
3876;DHT22;1953;51.222;6.624;2022-11-30T23:23:22;8.20;1.00
3876;DHT22;1953;51.222;6.624;2022-11-30T23:28:05;8.20;1.00
3876;DHT22;1953;51.222;6.624;2022-11-30T23:32:47;8.20;1.00
3876;DHT22;1953;51.222;6.624;2022-11-30T23:37:30;8.20;1.00
3876;DHT22;1953;51.222;6.624;2022-11-30T23:42:13;8.10;1.00
3876;DHT22;1953;51.222;6.624;2022-11-30T23:46:56;8.30;1.00
3876;DHT22;1953;51.222;6.624;2022-11-30T23:51:38;8.30;1.00
3876;DHT22;1953;51.222;6.624;2022-11-30T23:56:21;8.20;1.00
